Time;durP1;ratioP1;P1;durP2;ratioP2;P2;SDS_P1;SDS_P2;PMS_P1;PMS_P2;Temp;Humidity;BMP_temperature;BMP_pressure;BME280_temperature;BME280_humidity;BME280_pressure;Samples;Min_cycle;Max_cycle;Signal;HPM_P1;HPM_P2
2024/01/09 00:00:07;;;;;;;5.35;2.70;;;;;;;-2.75;57.59;103235.53;5075833;28;20030;-70
2024/01/09 00:02:33;;;;;;;5.47;2.60;;;;;;;-2.75;58.76;103237.19;5059437;28;20447;-70
2024/01/09 00:08:01;;;;;;;3.95;2.55;;;;;;;-2.76;58.18;103233.72;5081136;28;20075;-71
2024/01/09 00:16:51;;;;;;;4.25;2.78;;;;;;;-2.83;58.09;103232.53;5079510;28;20067;-70
2024/01/09 00:19:16;;;;;;;5.63;2.85;;;;;;;-2.83;58.12;103231.63;5081463;28;20051;-71
2024/01/09 00:22:00;;;;;;;3.65;2.50;;;;;;;-2.86;57.59;103237.53;5064042;28;20017;-70
2024/01/09 00:27:47;;;;;;;5.03;2.60;;;;;;;-2.87;58.14;103235.75;5083396;28;20085;-71
2024/01/09 00:30:13;;;;;;;5.05;2.88;;;;;;;-2.91;57.71;103226.03;5080016;28;20554;-70
2024/01/09 00:32:38;;;;;;;4.80;2.80;;;;;;;-2.96;58.59;103226.59;5082590;28;20028;-71
2024/01/09 00:35:05;;;;;;;6.80;2.90;;;;;;;-2.91;58.92;103219.97;5061462;28;20016;-70
2024/01/09 00:37:30;;;;;;;4.15;2.90;;;;;;;-2.93;59.33;103230.25;5077390;28;20115;-70
2024/01/09 00:39:56;;;;;;;3.40;2.53;;;;;;;-2.99;58.66;103218.66;5082087;28;20107;-70
2024/01/09 00:42:21;;;;;;;3.53;2.60;;;;;;;-2.98;59.08;103233.41;5080388;28;20123;-71
2024/01/09 00:44:46;;;;;;;5.22;2.92;;;;;;;-3.00;59.51;103227.25;5083154;28;20055;-70
2024/01/09 00:47:12;;;;;;;5.22;3.03;;;;;;;-3.03;59.12;103233.16;5084970;28;20016;-70
2024/01/09 00:49:38;;;;;;;3.90;2.40;;;;;;;-3.02;58.58;103236.63;5079066;28;20032;-70
2024/01/09 00:52:03;;;;;;;5.28;2.70;;;;;;;-3.02;59.78;103236.63;5077823;28;20105;-71
2024/01/09 00:54:28;;;;;;;4.68;2.80;;;;;;;-3.05;59.75;103227.00;5078837;28;20023;-71
2024/01/09 00:56:54;;;;;;;4.60;2.88;;;;;;;-3.08;58.91;103232.91;5082661;28;20307;-70
2024/01/09 00:59:19;;;;;;;4.20;2.35;;;;;;;-3.09;58.68;103232.81;5081086;28;20111;-70
2024/01/09 01:01:52;;;;;;;3.80;2.53;;;;;;;-3.13;59.04;103234.34;5075317;28;20483;-71
2024/01/09 01:04:18;;;;;;;4.68;2.67;;;;;;;-3.15;59.22;103214.38;5079460;28;20147;-70
2024/01/09 01:06:45;;;;;;;5.10;2.83;;;;;;;-3.16;59.60;103231.59;5077383;28;20120;-70
2024/01/09 01:09:11;;;;;;;5.97;2.85;;;;;;;-3.17;59.66;103222.06;5078176;28;20839;-70
2024/01/09 01:11:37;;;;;;;6.63;2.67;;;;;;;-3.17;60.06;103223.72;5077611;28;20028;-71
2024/01/09 01:14:02;;;;;;;4.72;2.95;;;;;;;-3.24;59.07;103227.69;5080266;28;20056;-70
2024/01/09 01:16:28;;;;;;;3.70;2.65;;;;;;;-3.18;60.20;103225.44;5083010;28;20080;-70
2024/01/09 01:18:53;;;;;;;6.35;2.58;;;;;;;-3.18;59.78;103227.13;5080595;28;20848;-70
2024/01/09 01:21:19;;;;;;;4.93;2.55;;;;;;;-3.21;59.38;103224.41;5075073;28;20477;-71
2024/01/09 01:23:44;;;;;;;4.50;2.80;;;;;;;-3.20;59.36;103233.94;5080375;28;20464;-70
2024/01/09 01:26:09;;;;;;;6.03;2.67;;;;;;;-3.23;59.49;103231.16;5079381;28;20107;-70
2024/01/09 01:28:35;;;;;;;3.42;2.53;;;;;;;-3.25;60.29;103235.38;5076926;28;20028;-70
2024/01/09 01:31:01;;;;;;;4.45;2.72;;;;;;;-3.28;59.71;103227.44;5079966;28;20435;-70
2024/01/09 01:33:26;;;;;;;5.32;2.58;;;;;;;-3.26;60.90;103225.84;5076248;28;20484;-70
2024/01/09 01:35:51;;;;;;;4.55;3.00;;;;;;;-3.23;60.08;103236.34;5079199;28;20080;-70
2024/01/09 01:38:16;;;;;;;4.60;2.75;;;;;;;-3.26;59.89;103231.03;5075359;28;20031;-69
2024/01/09 01:40:42;;;;;;;4.38;2.63;;;;;;;-3.31;60.30;103237.59;5074924;28;20472;-69
2024/01/09 01:43:07;;;;;;;4.85;2.72;;;;;;;-3.31;60.19;103237.59;5059447;28;20435;-69
2024/01/09 01:45:33;;;;;;;5.00;2.45;;;;;;;-3.33;59.92;103227.19;5076723;28;20031;-69
2024/01/09 01:47:59;;;;;;;3.60;2.35;;;;;;;-3.31;60.58;103235.94;5082564;28;20039;-69
2024/01/09 01:50:26;;;;;;;4.22;2.28;;;;;;;-3.33;60.32;103229.78;5080139;28;20051;-69
2024/01/09 01:52:51;;;;;;;3.67;2.03;;;;;;;-3.37;60.25;103228.72;5079381;28;20085;-69
2024/01/09 01:55:20;;;;;;;3.38;2.30;;;;;;;-3.42;60.65;103226.69;5075140;28;20078;-69
2024/01/09 01:57:48;;;;;;;3.10;2.30;;;;;;;-3.45;59.51;103231.69;5076500;28;20515;-69
2024/01/09 02:00:16;;;;;;;3.60;2.38;;;;;;;-3.42;60.16;103232.75;5079041;28;20072;-69
2024/01/09 02:02:44;;;;;;;3.60;2.25;;;;;;;-3.43;59.47;103230.09;5075004;28;20048;-68
2024/01/09 02:05:10;;;;;;;5.03;2.22;;;;;;;-3.46;59.20;103225.63;5082896;28;20431;-68
2024/01/09 02:07:38;;;;;;;4.43;2.65;;;;;;;-3.41;59.87;103233.63;5074326;28;20024;-69
2024/01/09 02:10:04;;;;;;;3.38;2.25;;;;;;;-3.43;60.06;103232.66;5083885;28;20519;-70
2024/01/09 02:12:30;;;;;;;3.60;2.20;;;;;;;-3.47;60.27;103225.53;5080435;28;20024;-70
2024/01/09 02:14:55;;;;;;;3.58;2.40;;;;;;;-3.52;59.33;103233.03;5077737;28;20028;-70
2024/01/09 02:17:21;;;;;;;3.50;2.40;;;;;;;-3.49;61.01;103222.00;5077545;28;20165;-70
2024/01/09 02:19:46;;;;;;;3.42;2.40;;;;;;;-3.48;60.15;103231.53;5076916;28;20055;-70
2024/01/09 02:22:13;;;;;;;4.82;2.75;;;;;;;-3.55;60.09;103219.03;5073089;28;20056;-70
2024/01/09 02:24:38;;;;;;;4.38;2.60;;;;;;;-3.53;60.61;103218.34;5078283;28;20376;-70
2024/01/09 02:27:13;;;;;;;4.32;2.42;;;;;;;-3.52;60.43;103230.47;5076814;28;20024;-70
2024/01/09 02:29:49;;;;;;;3.80;3.08;;;;;;;-3.53;60.52;103215.75;5075944;28;20035;-70
2024/01/09 02:32:16;;;;;;;5.38;2.85;;;;;;;-3.53;60.20;103217.47;5075555;28;20065;-70
2024/01/09 02:34:43;;;;;;;5.50;3.13;;;;;;;-3.55;60.56;103217.34;5076480;28;20040;-70
2024/01/09 02:37:08;;;;;;;5.43;2.95;;;;;;;-3.60;60.43;103211.91;5072565;28;20059;-70
2024/01/09 02:39:34;;;;;;;2.72;1.85;;;;;;;-3.62;62.05;103205.78;5079287;28;20093;-70
2024/01/09 02:41:59;;;;;;;2.53;2.08;;;;;;;-3.59;61.05;103215.44;5079476;28;20032;-71
2024/01/09 02:44:24;;;;;;;3.85;2.70;;;;;;;-3.60;61.60;103216.19;5080093;28;20520;-70
2024/01/09 02:46:49;;;;;;;4.32;2.35;;;;;;;-3.65;61.32;103209.88;5078288;28;20047;-70
2024/01/09 02:49:15;;;;;;;4.32;2.33;;;;;;;-3.67;61.12;103206.34;5060253;28;20462;-70
2024/01/09 02:51:40;;;;;;;3.80;2.30;;;;;;;-3.65;60.85;103215.06;5073118;28;20770;-70
2024/01/09 02:54:05;;;;;;;7.13;2.65;;;;;;;-3.64;61.95;103215.16;5057279;28;20399;-70
2024/01/09 02:56:32;;;;;;;3.92;2.72;;;;;;;-3.72;61.81;103211.25;5084607;28;20072;-70
2024/01/09 02:58:58;;;;;;;4.07;2.65;;;;;;;-3.72;62.40;103211.25;5083254;28;20028;-70
2024/01/09 03:01:24;;;;;;;3.90;2.10;;;;;;;-3.67;61.86;103209.81;5076090;28;20039;-70
2024/01/09 03:03:49;;;;;;;4.50;2.35;;;;;;;-3.72;61.69;103203.50;5081063;28;20077;-70
2024/01/09 03:06:14;;;;;;;2.60;1.90;;;;;;;-3.73;62.51;103201.72;5078946;28;20020;-70
2024/01/09 03:08:40;;;;;;;3.97;2.38;;;;;;;-3.75;63.43;103197.25;5081943;28;20473;-70
2024/01/09 03:11:05;;;;;;;5.47;2.67;;;;;;;-3.79;62.27;103191.03;5084493;28;20048;-70
2024/01/09 03:13:30;;;;;;;6.55;2.67;;;;;;;-3.79;62.26;103198.78;5079850;28;20033;-70
2024/01/09 03:15:56;;;;;;;5.68;2.92;;;;;;;-3.78;62.70;103194.50;5078241;28;20024;-70
2024/01/09 03:18:21;;;;;;;4.95;2.55;;;;;;;-3.79;63.00;103198.78;5081452;28;20040;-70
2024/01/09 03:20:46;;;;;;;3.75;2.45;;;;;;;-3.85;62.78;103194.16;5081107;28;20541;-68
2024/01/09 03:23:11;;;;;;;3.60;2.50;;;;;;;-3.84;62.46;103200.22;5079982;28;20674;-68
2024/01/09 03:25:37;;;;;;;5.75;2.60;;;;;;;-3.84;62.24;103197.63;5079508;28;20040;-69
2024/01/09 03:28:02;;;;;;;3.50;2.17;;;;;;;-3.86;62.08;103191.50;5077330;28;20384;-69
2024/01/09 03:30:29;;;;;;;4.85;2.67;;;;;;;-3.85;62.82;103201.91;5079192;28;20117;-68
2024/01/09 03:32:55;;;;;;;5.03;2.78;;;;;;;-3.89;62.71;103202.53;5077880;28;20040;-69
2024/01/09 03:35:20;;;;;;;5.07;2.55;;;;;;;-3.91;63.01;103206.75;5077385;28;20032;-68
2024/01/09 03:37:45;;;;;;;4.47;2.80;;;;;;;-3.90;63.00;103205.94;5080125;28;20020;-69
2024/01/09 03:40:11;;;;;;;2.97;2.33;;;;;;;-3.90;63.73;103200.75;5078983;28;20512;-69
2024/01/09 03:42:37;;;;;;;7.45;2.92;;;;;;;-3.95;63.59;103199.63;5086451;28;20031;-69
2024/01/09 03:45:02;;;;;;;6.20;2.90;;;;;;;-3.88;63.34;103195.66;5065447;28;20407;-69
2024/01/09 03:47:27;;;;;;;5.28;3.15;;;;;;;-3.88;62.35;103193.97;5085431;28;20150;-68
2024/01/09 03:49:53;;;;;;;3.75;2.42;;;;;;;-3.83;62.54;103201.97;5088448;28;20032;-68
2024/01/09 03:52:18;;;;;;;4.43;2.40;;;;;;;-3.89;62.77;103197.38;5088764;28;20098;-68
2024/01/09 03:54:43;;;;;;;3.92;2.85;;;;;;;-3.98;63.10;103193.38;5086078;28;20073;-68
2024/01/09 03:57:10;;;;;;;6.15;2.95;;;;;;;-3.96;62.96;103190.09;5086050;28;20407;-69
2024/01/09 03:59:35;;;;;;;4.25;2.08;;;;;;;-3.97;62.81;103202.91;5085729;28;20035;-70
2024/01/09 04:02:01;;;;;;;4.18;2.55;;;;;;;-3.99;63.10;103192.47;5083419;28;20017;-69
2024/01/09 04:04:26;;;;;;;4.18;2.78;;;;;;;-3.97;63.31;103198.63;5079293;28;20497;-70
2024/01/09 04:06:52;;;;;;;5.32;3.13;;;;;;;-3.98;62.94;103193.38;5086244;28;20162;-69
2024/01/09 04:09:17;;;;;;;3.20;2.00;;;;;;;-3.96;62.77;103196.94;5083888;28;20059;-70
2024/01/09 04:11:47;;;;;;;3.83;2.90;;;;;;;-3.97;63.75;103195.16;5080303;28;20036;-70
2024/01/09 04:14:13;;;;;;;4.72;2.80;;;;;;;-3.99;63.84;103196.75;5081471;28;20534;-70
2024/01/09 04:16:38;;;;;;;3.67;2.38;;;;;;;-4.00;63.34;103187.25;5077692;28;20056;-70
2024/01/09 04:19:03;;;;;;;3.40;2.20;;;;;;;-4.02;64.02;103191.41;5083292;28;20140;-70
2024/01/09 04:21:29;;;;;;;4.50;2.70;;;;;;;-4.07;63.49;103187.69;5078551;28;20024;-70
2024/01/09 04:23:54;;;;;;;5.05;2.45;;;;;;;-4.08;63.98;103191.06;5079566;28;20028;-70
2024/01/09 04:26:19;;;;;;;3.92;2.47;;;;;;;-4.11;64.34;103187.50;5086611;28;20107;-70
2024/01/09 04:28:44;;;;;;;4.72;2.65;;;;;;;-4.10;63.61;103193.56;5085920;28;20032;-69
2024/01/09 04:31:10;;;;;;;3.38;2.42;;;;;;;-4.12;64.06;103201.22;5083416;28;20068;-70
2024/01/09 04:33:35;;;;;;;5.20;2.88;;;;;;;-4.10;64.45;103188.41;5081001;28;20055;-70
2024/01/09 04:36:00;;;;;;;4.90;3.15;;;;;;;-4.15;63.36;103193.31;5079817;28;20028;-70
2024/01/09 04:38:26;;;;;;;3.65;2.60;;;;;;;-4.08;63.68;103185.91;5076653;28;20387;-69
2024/01/09 04:40:51;;;;;;;3.63;2.15;;;;;;;-4.14;63.34;103183.88;5090131;28;20620;-68
2024/01/09 04:43:16;;;;;;;4.82;2.75;;;;;;;-4.13;63.61;103183.06;5085614;28;20035;-68
2024/01/09 04:45:42;;;;;;;3.85;2.72;;;;;;;-4.13;63.40;103191.69;5086766;28;20063;-68
2024/01/09 04:48:08;;;;;;;5.15;2.50;;;;;;;-4.11;63.04;103181.44;5081902;28;20104;-68
2024/01/09 04:50:33;;;;;;;4.25;2.75;;;;;;;-4.08;63.64;103188.50;5075560;28;20082;-68
2024/01/09 04:52:58;;;;;;;5.60;2.25;;;;;;;-4.09;63.80;103192.78;5082160;28;20020;-68
2024/01/09 04:55:23;;;;;;;6.20;2.88;;;;;;;-4.18;63.61;103187.97;5078099;28;20110;-68
2024/01/09 04:57:49;;;;;;;6.80;2.92;;;;;;;-4.16;63.86;103193.19;5079247;28;20081;-68
2024/01/09 05:00:14;;;;;;;3.70;2.25;;;;;;;-4.19;63.73;103188.78;5076443;28;20485;-69
2024/01/09 05:02:40;;;;;;;3.80;2.22;;;;;;;-4.17;64.23;103191.44;5080795;28;20032;-68
2024/01/09 05:05:05;;;;;;;8.43;3.00;;;;;;;-4.19;64.04;103186.19;5088931;28;20032;-68
2024/01/09 05:07:31;;;;;;;4.38;2.65;;;;;;;-4.18;64.25;103185.38;5083200;28;20032;-68
2024/01/09 05:09:56;;;;;;;5.30;3.40;;;;;;;-4.26;62.98;103186.63;5079633;28;20051;-69
2024/01/09 05:12:21;;;;;;;5.28;3.13;;;;;;;-4.19;63.69;103187.88;5080974;28;20050;-69
2024/01/09 05:14:47;;;;;;;4.15;2.70;;;;;;;-4.20;63.69;103191.25;5084925;28;20032;-69
2024/01/09 05:17:14;;;;;;;3.58;2.55;;;;;;;-4.22;63.89;103188.56;5084207;28;20061;-70
2024/01/09 05:19:39;;;;;;;4.47;2.50;;;;;;;-4.22;63.67;103193.75;5086213;28;20027;-69
2024/01/09 05:22:04;;;;;;;5.78;2.33;;;;;;;-4.22;64.82;103186.00;5079465;28;20028;-69
2024/01/09 05:24:30;;;;;;;4.25;2.55;;;;;;;-4.24;64.00;103185.03;5083358;28;20553;-69
2024/01/09 05:26:56;;;;;;;5.43;3.10;;;;;;;-4.25;63.80;103187.50;5080079;28;20051;-70
2024/01/09 05:29:21;;;;;;;6.10;2.72;;;;;;;-4.24;64.22;103194.47;5089909;28;20088;-69
2024/01/09 05:31:46;;;;;;;5.50;2.58;;;;;;;-4.27;63.75;103192.59;5073524;28;20484;-69
2024/01/09 05:34:12;;;;;;;4.53;2.67;;;;;;;-4.28;64.33;103183.06;5086148;28;20024;-69
2024/01/09 05:36:37;;;;;;;5.50;2.60;;;;;;;-4.27;63.59;103194.28;5085346;28;20497;-69
2024/01/09 05:39:02;;;;;;;4.80;2.78;;;;;;;-4.28;63.31;103188.22;5084179;28;20039;-69
2024/01/09 05:41:28;;;;;;;4.22;2.53;;;;;;;-4.28;63.77;103185.66;5081436;28;20470;-69
2024/01/09 05:43:53;;;;;;;4.40;2.88;;;;;;;-4.30;63.57;103178.59;5086563;28;20051;-69
2024/01/09 05:46:19;;;;;;;4.60;2.65;;;;;;;-4.30;63.20;103183.75;5067745;28;20063;-69
2024/01/09 05:48:44;;;;;;;7.07;2.95;;;;;;;-4.31;63.68;103189.75;5086518;28;20123;-70
2024/01/09 05:51:10;;;;;;;5.63;3.40;;;;;;;-4.34;63.55;103185.28;5085635;28;20016;-68
2024/01/09 05:53:37;;;;;;;4.75;2.50;;;;;;;-4.33;64.08;103191.34;5083987;28;20395;-68
2024/01/09 05:56:04;;;;;;;5.63;2.95;;;;;;;-4.34;64.37;103190.44;5081460;28;20028;-68
2024/01/09 05:58:29;;;;;;;5.55;2.95;;;;;;;-4.35;65.02;103193.81;5084066;28;20498;-68
2024/01/09 06:00:54;;;;;;;6.10;3.13;;;;;;;-4.36;64.97;103190.34;5083548;28;20020;-68
2024/01/09 06:03:20;;;;;;;3.72;2.58;;;;;;;-4.42;64.47;103190.00;5084529;28;20037;-68
2024/01/09 06:05:45;;;;;;;5.45;2.60;;;;;;;-4.40;65.41;103190.09;5079536;28;20501;-68
2024/01/09 06:08:10;;;;;;;7.15;3.10;;;;;;;-4.44;64.87;103183.84;5085714;28;20032;-68
2024/01/09 06:10:35;;;;;;;7.22;3.03;;;;;;;-4.44;64.38;103185.53;5083813;28;20055;-69
2024/01/09 06:13:01;;;;;;;6.15;3.17;;;;;;;-4.43;65.15;103187.31;5084953;28;20417;-68
2024/01/09 06:15:27;;;;;;;5.40;3.05;;;;;;;-4.45;64.73;103186.34;5083341;28;20113;-68
2024/01/09 06:17:54;;;;;;;3.65;3.00;;;;;;;-4.44;65.13;103190.69;5082739;28;20051;-69
2024/01/09 06:20:19;;;;;;;7.90;3.47;;;;;;;-4.50;64.73;103191.25;5085045;28;20043;-70
2024/01/09 06:22:44;;;;;;;5.60;3.40;;;;;;;-4.48;65.26;103186.16;5080980;28;20042;-69
2024/01/09 06:25:10;;;;;;;5.75;2.80;;;;;;;-4.46;65.25;103192.31;5083154;28;20055;-69
2024/01/09 06:27:35;;;;;;;5.78;3.03;;;;;;;-4.48;65.21;103193.91;5080931;28;20048;-69
2024/01/09 06:30:01;;;;;;;6.82;3.60;;;;;;;-4.48;65.12;103196.47;5082836;28;20345;-70
2024/01/09 06:32:26;;;;;;;4.28;2.90;;;;;;;-4.47;65.25;103195.72;5084618;28;20058;-69
2024/01/09 06:34:51;;;;;;;7.70;3.55;;;;;;;-4.48;65.42;103197.38;5082488;28;20131;-69
2024/01/09 06:37:17;;;;;;;6.65;2.97;;;;;;;-4.48;65.48;103196.47;5089699;28;20057;-69
2024/01/09 06:39:42;;;;;;;8.30;3.30;;;;;;;-4.50;65.70;103204.16;5085534;28;20054;-70
2024/01/09 06:42:08;;;;;;;5.85;3.20;;;;;;;-4.52;65.80;103210.94;5090656;28;20106;-69
2024/01/09 06:44:33;;;;;;;6.55;2.83;;;;;;;-4.53;65.46;103219.44;5081828;28;20031;-69
2024/01/09 06:46:58;;;;;;;5.70;3.30;;;;;;;-4.58;65.94;103213.13;5085606;28;20055;-70
2024/01/09 06:49:24;;;;;;;4.78;3.20;;;;;;;-4.54;65.66;103215.09;5086693;28;20020;-69
2024/01/09 06:51:49;;;;;;;6.22;3.30;;;;;;;-4.51;65.87;103216.97;5064777;28;20111;-69
2024/01/09 06:54:14;;;;;;;6.55;3.08;;;;;;;-4.51;66.04;103219.56;5081783;28;20079;-69
2024/01/09 06:56:44;;;;;;;6.07;3.63;;;;;;;-4.56;65.59;103223.56;5065326;28;20404;-69
2024/01/09 06:59:10;;;;;;;6.50;3.22;;;;;;;-4.57;65.76;103220.09;5083349;28;20470;-69
2024/01/09 07:01:35;;;;;;;5.80;3.05;;;;;;;-4.55;66.19;103225.31;5084217;28;20036;-68
2024/01/09 07:04:01;;;;;;;6.53;3.28;;;;;;;-4.60;66.44;103225.06;5088565;28;20383;-67
2024/01/09 07:06:26;;;;;;;5.45;3.50;;;;;;;-4.60;66.80;103224.16;5088718;28;20032;-69
2024/01/09 07:08:52;;;;;;;6.38;3.80;;;;;;;-4.63;66.52;103230.03;5088035;28;20118;-68
2024/01/09 07:11:17;;;;;;;7.50;3.35;;;;;;;-4.64;66.81;103223.97;5085798;28;20028;-68
2024/01/09 07:13:43;;;;;;;6.10;3.17;;;;;;;-4.66;66.75;103227.28;5068600;28;20448;-68
2024/01/09 07:16:09;;;;;;;4.75;3.70;;;;;;;-4.62;67.04;103224.06;5089160;28;20074;-68
2024/01/09 07:18:34;;;;;;;7.20;3.67;;;;;;;-4.59;66.42;103225.94;5067161;28;20032;-68
2024/01/09 07:20:59;;;;;;;7.82;3.25;;;;;;;-4.61;66.67;103223.28;5088118;28;20016;-68
2024/01/09 07:23:25;;;;;;;7.45;3.78;;;;;;;-4.65;66.32;103227.34;5088637;28;20036;-68
2024/01/09 07:25:50;;;;;;;5.03;3.33;;;;;;;-4.66;66.08;103224.69;5085045;28;20035;-68
2024/01/09 07:28:16;;;;;;;6.95;3.47;;;;;;;-4.64;66.08;103234.28;5086212;28;20020;-69
2024/01/09 07:30:44;;;;;;;6.05;3.58;;;;;;;-4.63;66.04;103233.50;5086151;28;20035;-68
2024/01/09 07:33:09;;;;;;;7.05;3.10;;;;;;;-4.64;66.37;103234.28;5089317;28;20024;-69
2024/01/09 07:35:37;;;;;;;6.05;3.40;;;;;;;-4.64;65.95;103242.03;5090013;28;20461;-68
2024/01/09 07:38:03;;;;;;;5.25;3.47;;;;;;;-4.66;65.97;103250.50;5084192;28;20553;-68
2024/01/09 07:40:29;;;;;;;8.93;3.80;;;;;;;-4.64;66.07;103241.16;5089085;28;20384;-68
2024/01/09 07:42:58;;;;;;;6.70;3.90;;;;;;;-4.62;66.06;103248.19;5081914;28;20036;-68
2024/01/09 07:45:28;;;;;;;6.32;3.72;;;;;;;-4.62;66.21;103249.84;5083567;28;20055;-68
2024/01/09 07:47:53;;;;;;;4.85;3.00;;;;;;;-4.60;66.30;103249.97;5078179;28;20488;-68
2024/01/09 07:50:18;;;;;;;8.50;4.00;;;;;;;-4.63;66.52;103261.88;5085953;28;20138;-68
2024/01/09 07:52:44;;;;;;;7.85;3.60;;;;;;;-4.65;66.21;103254.84;5079536;28;20027;-68
2024/01/09 07:55:09;;;;;;;6.25;3.58;;;;;;;-4.59;66.54;103264.66;5081623;28;20106;-68
2024/01/09 07:57:35;;;;;;;7.65;3.78;;;;;;;-4.62;66.21;103261.09;5076632;28;20017;-68
2024/01/09 08:00:00;;;;;;;6.25;3.22;;;;;;;-4.59;66.54;103262.97;5079204;28;20024;-68
2024/01/09 08:02:28;;;;;;;7.22;3.83;;;;;;;-4.60;66.60;103271.50;5080472;28;20020;-68
2024/01/09 08:04:53;;;;;;;8.85;3.97;;;;;;;-4.57;66.52;103263.03;5089020;28;20694;-68
2024/01/09 08:07:18;;;;;;;6.38;3.22;;;;;;;-4.54;66.74;103258.06;5083635;28;20111;-68
2024/01/09 08:09:44;;;;;;;7.97;4.00;;;;;;;-4.54;66.54;103263.25;5080729;28;20051;-68
2024/01/09 08:12:09;;;;;;;7.32;3.88;;;;;;;-4.56;66.43;103265.75;5075759;28;20387;-68
2024/01/09 08:14:34;;;;;;;6.13;4.20;;;;;;;-4.59;66.25;103260.38;5075077;28;20096;-68
2024/01/09 08:17:00;;;;;;;8.80;2.97;;;;;;;-4.54;66.36;103270.97;5075530;28;20036;-67
2024/01/09 08:19:25;;;;;;;7.65;3.95;;;;;;;-4.54;66.53;103268.41;5084582;28;20380;-68
2024/01/09 08:21:51;;;;;;;6.65;3.88;;;;;;;-4.46;66.38;103277.50;5087740;28;20102;-69
2024/01/09 08:24:18;;;;;;;6.63;3.95;;;;;;;-4.36;66.37;103274.69;5083456;28;20051;-68
2024/01/09 08:26:47;;;;;;;9.10;4.38;;;;;;;-4.24;65.61;103262.50;5079533;28;20483;-69
2024/01/09 08:29:13;;;;;;;6.60;3.55;;;;;;;-4.12;66.03;103273.53;5076024;28;20020;-68
2024/01/09 08:31:45;;;;;;;6.65;4.00;;;;;;;-4.07;64.92;103273.81;5085740;28;20391;-68
2024/01/09 08:34:12;;;;;;;7.80;4.25;;;;;;;-3.78;64.69;103275.50;5082696;28;20090;-67
2024/01/09 08:36:37;;;;;;;7.57;4.30;;;;;;;-3.52;64.11;103273.53;5079491;28;20106;-68
2024/01/09 08:39:03;;;;;;;6.72;4.13;;;;;;;-3.38;63.61;103273.50;5079304;28;20108;-67
2024/01/09 08:41:28;;;;;;;8.80;4.25;;;;;;;-3.27;63.35;103270.59;5084809;28;20028;-69
2024/01/09 08:43:53;;;;;;;7.78;3.67;;;;;;;-2.57;61.71;103280.47;5082523;28;20027;-68
2024/01/09 08:46:19;;;;;;;5.97;3.58;;;;;;;-2.54;60.30;103273.69;5065347;28;20064;-69
2024/01/09 08:48:46;;;;;;;6.22;2.75;;;;;;;-2.41;60.62;103276.13;5079589;28;20035;-68
2024/01/09 08:51:11;;;;;;;8.48;4.25;;;;;;;-1.72;59.28;103280.53;5078456;28;20045;-69
2024/01/09 08:53:37;;;;;;;9.27;3.83;;;;;;;-0.91;57.29;103274.00;5084894;28;20109;-69
2024/01/09 08:56:02;;;;;;;5.95;3.75;;;;;;;-0.37;55.50;103272.13;5082641;28;20592;-70
2024/01/09 08:58:27;;;;;;;7.63;4.40;;;;;;;-0.75;54.47;103283.38;5085863;28;20437;-70
2024/01/09 09:00:53;;;;;;;5.80;4.13;;;;;;;-0.95;54.51;103277.28;5079990;28;20341;-70
2024/01/09 09:03:18;;;;;;;6.72;3.50;;;;;;;-1.09;55.03;103284.41;5077576;28;20032;-69
2024/01/09 09:05:43;;;;;;;6.40;4.05;;;;;;;-1.00;55.05;103278.78;5084366;28;20024;-70
2024/01/09 09:08:08;;;;;;;9.07;4.43;;;;;;;-0.99;54.83;103282.25;5078826;28;20507;-70
2024/01/09 09:10:34;;;;;;;6.00;3.63;;;;;;;-1.26;54.16;103280.13;5078343;28;20053;-70
2024/01/09 09:12:59;;;;;;;8.05;3.95;;;;;;;-1.46;54.47;103284.38;5087352;28;20051;-71
2024/01/09 09:15:24;;;;;;;4.93;3.42;;;;;;;-1.41;54.83;103295.84;5084783;28;20027;-70
2024/01/09 09:17:50;;;;;;;7.07;4.05;;;;;;;-1.49;54.59;103291.09;5089305;28;20028;-70
2024/01/09 09:20:17;;;;;;;5.43;3.03;;;;;;;-1.26;54.89;103300.00;5079899;28;20375;-68
2024/01/09 09:22:42;;;;;;;7.72;3.65;;;;;;;-0.72;53.85;103285.22;5080996;28;20551;-70
2024/01/09 09:25:08;;;;;;;5.78;3.63;;;;;;;-0.52;52.99;103285.28;5081109;28;20077;-69
2024/01/09 09:27:33;;;;;;;6.57;3.80;;;;;;;0.07;52.93;103277.44;5081548;28;20032;-70
2024/01/09 09:29:58;;;;;;;7.82;4.20;;;;;;;0.84;50.59;103271.00;5081541;28;20019;-70
2024/01/09 09:32:24;;;;;;;7.38;4.40;;;;;;;1.19;49.91;103274.97;5068267;28;20106;-71
2024/01/09 09:34:49;;;;;;;6.82;3.22;;;;;;;2.30;48.16;103275.44;5082040;28;20299;-71
2024/01/09 09:37:14;;;;;;;9.05;3.95;;;;;;;3.41;44.65;103267.53;5083628;28;20028;-71
2024/01/09 09:39:40;;;;;;;6.97;4.05;;;;;;;3.94;42.14;103268.13;5075626;28;20102;-71
2024/01/09 09:42:06;;;;;;;6.85;3.88;;;;;;;4.49;41.58;103259.03;5079545;28;20050;-70
2024/01/09 09:44:34;;;;;;;5.95;3.60;;;;;;;5.03;40.25;103257.59;5083466;28;20032;-70
2024/01/09 09:47:00;;;;;;;7.32;3.92;;;;;;;5.63;38.86;103263.22;5078516;28;20078;-70
2024/01/09 09:49:25;;;;;;;7.03;4.10;;;;;;;6.21;37.80;103263.44;5082054;28;20446;-70
2024/01/09 09:51:53;;;;;;;6.90;3.78;;;;;;;6.67;37.96;103274.69;5088221;28;20024;-69
2024/01/09 09:54:19;;;;;;;6.63;3.90;;;;;;;6.93;36.69;103272.41;5078347;28;20028;-70
2024/01/09 09:56:45;;;;;;;5.55;3.75;;;;;;;7.53;36.22;103266.16;5080235;28;20560;-69
2024/01/09 09:59:11;;;;;;;6.95;4.38;;;;;;;8.22;35.99;103268.63;5087219;28;20535;-69
2024/01/09 10:01:37;;;;;;;4.75;3.83;;;;;;;8.64;34.54;103268.97;5073317;28;20111;-69
2024/01/09 10:04:26;;;;;;;6.00;3.85;;;;;;;8.41;33.36;103266.19;5079057;28;20028;-70
2024/01/09 10:06:58;;;;;;;6.35;3.75;;;;;;;8.83;34.40;103263.81;5087409;28;20032;-70
2024/01/09 10:09:30;;;;;;;5.57;3.65;;;;;;;8.82;33.52;103262.06;5078418;28;20044;-70
2024/01/09 10:11:55;;;;;;;8.95;4.10;;;;;;;9.23;33.11;103258.75;5081764;28;20158;-70
2024/01/09 10:14:21;;;;;;;5.43;3.45;;;;;;;9.24;31.80;103244.69;5090039;28;20465;-70
2024/01/09 10:16:54;;;;;;;6.45;3.92;;;;;;;9.27;33.05;103242.91;5083295;28;20446;-70
2024/01/09 10:19:23;;;;;;;6.40;3.55;;;;;;;9.12;31.91;103240.22;5079725;28;20465;-68
2024/01/09 10:21:52;;;;;;;7.18;4.85;;;;;;;9.35;32.64;103246.47;5083614;28;20024;-69
2024/01/09 10:24:18;;;;;;;8.25;4.32;;;;;;;9.70;32.78;103241.31;5062152;28;20032;-69
2024/01/09 10:26:44;;;;;;;5.95;4.30;;;;;;;9.33;30.68;103239.44;5082690;28;20085;-70
2024/01/09 10:29:10;;;;;;;7.75;4.55;;;;;;;9.45;30.98;103247.38;5082381;28;20035;-69
2024/01/09 10:31:35;;;;;;;6.35;4.03;;;;;;;10.14;30.99;103243.09;5075901;28;20020;-69
2024/01/09 10:34:01;;;;;;;6.72;3.70;;;;;;;10.17;30.24;103242.25;5084917;28;20510;-69
2024/01/09 10:36:27;;;;;;;6.68;4.35;;;;;;;10.36;30.21;103245.78;5076786;28;20027;-69
2024/01/09 10:39:02;;;;;;;6.63;3.72;;;;;;;10.84;32.00;103242.16;5085027;28;20020;-69
2024/01/09 10:41:27;;;;;;;8.73;4.18;;;;;;;11.25;27.72;103235.84;5082227;28;20067;-70
2024/01/09 10:43:52;;;;;;;9.18;4.88;;;;;;;10.80;28.54;103237.75;5078869;28;20043;-69
2024/01/09 10:46:23;;;;;;;6.72;3.95;;;;;;;10.81;28.86;103226.28;5079932;28;20024;-69
2024/01/09 10:48:50;;;;;;;5.22;4.10;;;;;;;10.76;28.74;103235.13;5077740;28;20028;-70
2024/01/09 10:51:17;;;;;;;7.32;4.45;;;;;;;10.70;29.17;103226.31;5082445;28;20028;-69
2024/01/09 10:53:44;;;;;;;6.43;3.97;;;;;;;10.63;29.05;103227.25;5064389;28;20036;-70
2024/01/09 10:56:15;;;;;;;6.35;4.43;;;;;;;10.48;27.59;103214.91;5044812;28;20020;-69
2024/01/09 10:58:46;;;;;;;6.47;3.63;;;;;;;10.73;28.87;103218.38;5074065;28;20025;-70
2024/01/09 11:01:12;;;;;;;6.78;4.18;;;;;;;11.01;27.39;103201.53;5064258;28;20551;-70
2024/01/09 11:03:38;;;;;;;6.55;3.92;;;;;;;11.05;26.57;103205.91;5082295;28;20046;-70
2024/01/09 11:06:05;;;;;;;7.53;4.10;;;;;;;11.08;26.79;103190.91;5079530;28;20421;-70
2024/01/09 11:08:34;;;;;;;9.88;4.40;;;;;;;11.05;29.15;103196.22;5080108;28;20036;-70
2024/01/09 11:11:05;;;;;;;6.72;3.70;;;;;;;11.06;25.85;103192.69;5064583;28;20042;-68
2024/01/09 11:13:33;;;;;;;6.32;3.63;;;;;;;11.18;27.15;103191.72;5074448;28;20032;-68
2024/01/09 11:16:02;;;;;;;5.45;3.67;;;;;;;11.46;27.31;103187.16;5079725;28;20035;-70
2024/01/09 11:18:28;;;;;;;5.72;3.78;;;;;;;11.55;25.26;103181.81;5077589;28;20035;-68
2024/01/09 11:21:01;;;;;;;5.75;3.97;;;;;;;12.03;27.35;103182.38;5077337;28;20023;-68
2024/01/09 11:23:46;;;;;;;5.63;4.22;;;;;;;11.82;26.86;103170.16;5079304;28;20036;-70
2024/01/09 11:26:12;;;;;;;5.10;3.40;;;;;;;11.79;26.05;103172.78;5083403;28;20042;-70
2024/01/09 11:28:41;;;;;;;8.20;4.45;;;;;;;11.86;26.59;103168.38;5085571;28;20055;-73
2024/01/09 11:31:07;;;;;;;6.47;4.13;;;;;;;12.02;26.54;103164.69;5078885;28;20078;-68
2024/01/09 11:33:33;;;;;;;6.72;3.83;;;;;;;12.14;24.78;103159.28;5062361;28;20103;-68